createdAt,value
2023-04-27T00:00:44.366Z,100.00
2023-04-27T00:03:12.136Z,100.00
2023-04-27T00:05:39.728Z,100.00
2023-04-27T00:08:07.281Z,100.00
2023-04-27T00:10:34.252Z,100.00
2023-04-27T00:13:01.702Z,100.00
2023-04-27T00:15:28.899Z,100.00
2023-04-27T00:17:55.812Z,100.00
2023-04-27T00:20:22.432Z,99.40
2023-04-27T00:22:49.096Z,98.62
2023-04-27T00:25:15.759Z,99.05
2023-04-27T00:27:42.397Z,98.17
2023-04-27T00:30:09.627Z,97.82
2023-04-27T00:32:36.270Z,99.35
2023-04-27T00:35:02.833Z,98.07
2023-04-27T00:37:29.499Z,99.06
2023-04-27T00:39:56.287Z,99.40
2023-04-27T00:42:24.952Z,98.10
2023-04-27T00:44:51.650Z,97.37
2023-04-27T00:47:18.313Z,96.70
2023-04-27T00:49:45.100Z,96.69
2023-04-27T00:52:11.755Z,98.46
2023-04-27T00:54:38.875Z,99.40
2023-04-27T00:57:05.692Z,99.39
2023-04-27T00:59:32.295Z,100.00
2023-04-27T01:01:59.699Z,99.86
2023-04-27T01:04:27.111Z,100.00
2023-04-27T01:06:54.169Z,100.00
2023-04-27T01:09:21.437Z,99.78
2023-04-27T01:11:49.776Z,99.67
2023-04-27T01:14:17.301Z,100.00
2023-04-27T01:16:44.365Z,99.67
2023-04-27T01:19:11.271Z,100.00
2023-04-27T01:21:38.218Z,100.00
2023-04-27T01:24:08.551Z,100.00
2023-04-27T01:26:37.410Z,100.00
2023-04-27T01:29:04.069Z,100.00
2023-04-27T01:31:31.196Z,100.00
2023-04-27T01:33:57.777Z,100.00
2023-04-27T01:36:24.410Z,100.00
2023-04-27T01:38:51.558Z,100.00
2023-04-27T01:41:18.168Z,100.00
2023-04-27T01:43:44.772Z,100.00
2023-04-27T01:46:13.121Z,100.00
2023-04-27T01:48:40.674Z,100.00
2023-04-27T01:51:07.393Z,100.00
2023-04-27T01:53:34.271Z,100.00
2023-04-27T01:56:01.077Z,100.00
2023-04-27T01:58:28.219Z,100.00
2023-04-27T02:00:55.084Z,100.00
2023-04-27T02:03:22.197Z,100.00
2023-04-27T02:05:50.412Z,100.00
2023-04-27T02:08:17.002Z,100.00
2023-04-27T02:10:44.679Z,100.00
2023-04-27T02:13:11.299Z,100.00
2023-04-27T02:15:37.929Z,100.00
2023-04-27T02:18:04.640Z,100.00
2023-04-27T02:20:32.269Z,100.00
2023-04-27T02:23:01.427Z,100.00
2023-04-27T02:25:28.116Z,100.00
2023-04-27T02:27:55.178Z,100.00
2023-04-27T02:30:22.334Z,100.00
2023-04-27T02:32:49.702Z,100.00
2023-04-27T02:35:16.441Z,100.00
2023-04-27T02:37:43.130Z,100.00
2023-04-27T02:40:10.676Z,100.00
2023-04-27T02:42:38.894Z,100.00
2023-04-27T02:45:08.797Z,100.00
2023-04-27T02:47:36.412Z,100.00
2023-04-27T02:50:03.787Z,100.00
2023-04-27T02:52:33.950Z,100.00
2023-04-27T02:55:00.604Z,100.00
2023-04-27T02:57:27.883Z,100.00
2023-04-27T02:59:54.393Z,100.00
2023-04-27T03:02:21.070Z,100.00
2023-04-27T03:04:47.728Z,100.00
2023-04-27T03:07:14.430Z,100.00
2023-04-27T03:09:41.046Z,100.00
2023-04-27T03:12:07.609Z,100.00
2023-04-27T03:14:34.207Z,100.00
2023-04-27T03:17:00.955Z,100.00
2023-04-27T03:19:27.782Z,100.00
2023-04-27T03:21:54.318Z,100.00
2023-04-27T03:24:21.810Z,100.00
2023-04-27T03:26:49.507Z,100.00
2023-04-27T03:29:16.207Z,100.00
2023-04-27T03:31:42.882Z,100.00
2023-04-27T03:34:09.581Z,100.00
2023-04-27T03:36:38.819Z,100.00
2023-04-27T03:39:05.467Z,100.00
2023-04-27T03:41:32.057Z,100.00
2023-04-27T03:43:58.650Z,100.00
2023-04-27T03:46:25.742Z,100.00
2023-04-27T03:48:52.651Z,100.00
2023-04-27T03:51:19.805Z,100.00
2023-04-27T03:53:46.812Z,100.00
2023-04-27T03:56:13.763Z,100.00
2023-04-27T03:58:40.325Z,100.00
2023-04-27T04:01:18.775Z,100.00
2023-04-27T04:03:46.158Z,100.00
2023-04-27T04:06:12.956Z,100.00
2023-04-27T04:08:39.616Z,100.00
2023-04-27T04:11:06.143Z,100.00
2023-04-27T04:13:35.972Z,100.00
2023-04-27T04:16:07.918Z,100.00
2023-04-27T04:18:36.120Z,100.00
2023-04-27T04:21:03.724Z,100.00
2023-04-27T04:23:30.377Z,100.00
2023-04-27T04:25:57.731Z,100.00
2023-04-27T04:28:27.551Z,100.00
2023-04-27T04:30:54.336Z,100.00
2023-04-27T04:33:21.409Z,100.00
2023-04-27T04:35:48.666Z,100.00
2023-04-27T04:38:15.535Z,100.00
2023-04-27T04:40:44.455Z,100.00
2023-04-27T04:43:13.400Z,100.00
2023-04-27T04:45:41.910Z,100.00
2023-04-27T04:48:08.617Z,100.00
2023-04-27T04:50:35.940Z,100.00
2023-04-27T04:53:02.818Z,100.00
2023-04-27T04:55:29.512Z,100.00
2023-04-27T04:57:56.093Z,100.00
2023-04-27T05:00:22.867Z,100.00
2023-04-27T05:02:49.907Z,100.00
2023-04-27T05:05:16.839Z,100.00
2023-04-27T05:07:43.437Z,100.00
2023-04-27T05:10:10.603Z,100.00
2023-04-27T05:12:37.332Z,100.00
2023-04-27T05:15:04.864Z,100.00
2023-04-27T05:17:31.755Z,100.00
2023-04-27T05:19:58.380Z,100.00
2023-04-27T05:22:24.911Z,100.00
2023-04-27T05:24:52.008Z,100.00
2023-04-27T05:27:18.567Z,100.00
2023-04-27T05:29:45.114Z,100.00
2023-04-27T05:32:11.747Z,100.00
2023-04-27T05:34:38.337Z,100.00
2023-04-27T05:37:04.910Z,100.00
2023-04-27T05:39:31.493Z,100.00
2023-04-27T05:41:58.074Z,100.00
2023-04-27T05:44:28.524Z,100.00
2023-04-27T05:46:56.197Z,100.00
2023-04-27T05:49:23.530Z,100.00
2023-04-27T05:51:50.241Z,100.00
2023-04-27T05:54:16.784Z,100.00
2023-04-27T05:56:43.432Z,100.00
2023-04-27T05:59:10.218Z,99.98
2023-04-27T06:01:36.927Z,98.51
2023-04-27T06:04:04.148Z,97.19
2023-04-27T06:06:35.271Z,97.48
2023-04-27T06:09:01.933Z,95.13
2023-04-27T06:11:28.736Z,94.41
2023-04-27T06:13:55.451Z,93.01
2023-04-27T06:16:22.085Z,92.79
2023-04-27T06:18:50.855Z,90.93
2023-04-27T06:21:17.759Z,91.04
2023-04-27T06:23:44.514Z,90.08
2023-04-27T06:26:11.443Z,91.16
2023-04-27T06:28:38.238Z,90.62
2023-04-27T06:31:06.303Z,89.29
2023-04-27T06:33:33.485Z,90.00
2023-04-27T06:36:01.764Z,87.47
2023-04-27T06:38:28.458Z,83.00
2023-04-27T06:40:55.092Z,82.78
2023-04-27T06:43:21.851Z,83.01
2023-04-27T06:45:48.468Z,83.16
2023-04-27T06:48:15.171Z,82.90
2023-04-27T06:50:42.010Z,83.49
2023-04-27T06:53:08.781Z,83.78
2023-04-27T06:55:35.675Z,81.07
2023-04-27T06:58:03.474Z,80.31
2023-04-27T07:00:30.893Z,79.70
2023-04-27T07:02:57.610Z,78.30
2023-04-27T07:05:24.340Z,76.10
2023-04-27T07:07:51.135Z,75.11
2023-04-27T07:10:17.915Z,78.11
2023-04-27T07:12:44.708Z,77.66
2023-04-27T07:15:11.400Z,74.66
2023-04-27T07:17:38.270Z,75.42
2023-04-27T07:20:06.333Z,75.58
2023-04-27T07:22:33.508Z,75.41
2023-04-27T07:25:00.150Z,74.26
2023-04-27T07:27:27.434Z,72.44
2023-04-27T07:29:54.703Z,72.25
2023-04-27T07:32:21.960Z,73.98
2023-04-27T07:34:53.602Z,74.49
2023-04-27T07:37:21.707Z,73.13
2023-04-27T07:39:54.802Z,69.16
2023-04-27T07:42:24.979Z,70.09
2023-04-27T07:44:52.384Z,73.00
2023-04-27T07:47:18.955Z,67.09
2023-04-27T07:49:51.683Z,66.21
2023-04-27T07:52:20.420Z,64.68
2023-04-27T07:54:46.975Z,64.69
2023-04-27T07:57:13.555Z,66.06
2023-04-27T07:59:40.219Z,63.45
2023-04-27T08:02:19.235Z,62.69
2023-04-27T08:04:48.231Z,60.40
2023-04-27T08:07:17.253Z,63.49
2023-04-27T08:09:44.297Z,63.92
2023-04-27T08:12:10.995Z,62.34
2023-04-27T08:14:37.555Z,59.02
2023-04-27T08:17:05.205Z,62.44
2023-04-27T08:19:31.825Z,60.43
2023-04-27T08:21:58.372Z,61.55
2023-04-27T08:24:24.937Z,60.01
2023-04-27T08:26:51.448Z,59.36
2023-04-27T08:29:26.901Z,60.68
2023-04-27T08:31:59.744Z,61.57
2023-04-27T08:34:27.323Z,61.04
2023-04-27T08:36:54.273Z,61.14
2023-04-27T08:39:21.667Z,58.75
2023-04-27T08:41:48.235Z,58.75
2023-04-27T08:44:14.821Z,61.79
2023-04-27T08:46:41.751Z,61.27
2023-04-27T08:49:08.472Z,58.25
2023-04-27T08:51:35.427Z,59.17
2023-04-27T08:54:02.386Z,57.81
2023-04-27T08:56:30.120Z,54.40
2023-04-27T08:58:58.191Z,55.45
2023-04-27T09:01:26.242Z,53.42
2023-04-27T09:04:00.697Z,52.71
2023-04-27T09:06:35.437Z,52.08
2023-04-27T09:09:03.934Z,51.38
2023-04-27T09:11:33.714Z,51.36
2023-04-27T09:14:03.130Z,52.83
2023-04-27T09:16:31.188Z,56.81
2023-04-27T09:18:58.956Z,53.45
2023-04-27T09:21:31.226Z,51.09
2023-04-27T09:23:58.088Z,50.10
2023-04-27T09:26:27.334Z,48.78
2023-04-27T09:28:58.282Z,49.31
2023-04-27T09:31:32.740Z,50.40
2023-04-27T09:33:59.340Z,48.84
2023-04-27T09:36:26.601Z,48.81
2023-04-27T09:38:53.802Z,53.15
2023-04-27T09:41:21.628Z,50.59
2023-04-27T09:43:49.352Z,53.44
2023-04-27T09:46:16.305Z,51.21
2023-04-27T09:48:43.011Z,50.02
2023-04-27T09:51:09.766Z,50.40
2023-04-27T09:53:41.729Z,49.37
2023-04-27T09:56:33.188Z,48.91
2023-04-27T09:59:30.810Z,46.07
2023-04-27T10:02:07.241Z,47.73
2023-04-27T10:04:59.881Z,45.84
2023-04-27T10:07:27.691Z,45.00
2023-04-27T10:09:54.275Z,46.05
2023-04-27T10:12:26.950Z,46.92
2023-04-27T10:14:54.809Z,43.50
2023-04-27T10:17:48.587Z,43.29
2023-04-27T10:20:15.842Z,47.02
2023-04-27T10:22:50.111Z,44.55
2023-04-27T10:25:24.261Z,45.05
2023-04-27T10:28:01.937Z,45.61
2023-04-27T10:30:33.806Z,44.18
2023-04-27T10:33:08.526Z,43.92
2023-04-27T10:35:40.459Z,44.13
2023-04-27T10:38:11.085Z,46.27
2023-04-27T10:40:38.649Z,45.40
2023-04-27T10:43:29.264Z,44.86
2023-04-27T10:46:07.436Z,48.06
2023-04-27T10:48:34.075Z,45.05
2023-04-27T10:51:01.542Z,45.79
2023-04-27T10:53:34.268Z,41.19
2023-04-27T10:56:00.836Z,40.87
2023-04-27T10:58:37.840Z,43.03
2023-04-27T11:01:23.863Z,43.22
2023-04-27T11:03:56.476Z,41.37
2023-04-27T11:06:23.244Z,40.90
2023-04-27T11:08:49.845Z,42.43
2023-04-27T11:11:18.018Z,41.82
2023-04-27T11:13:44.768Z,41.97
2023-04-27T11:16:11.556Z,43.45
2023-04-27T11:18:38.432Z,42.15
2023-04-27T11:21:14.070Z,43.63
2023-04-27T11:23:42.732Z,41.31
2023-04-27T11:26:10.199Z,41.62
2023-04-27T11:28:37.083Z,41.48
2023-04-27T11:31:04.608Z,41.03
2023-04-27T11:33:31.269Z,41.65
2023-04-27T11:35:58.226Z,40.80
2023-04-27T11:38:26.606Z,41.06
2023-04-27T11:41:06.774Z,41.17
2023-04-27T11:43:33.812Z,41.76
2023-04-27T11:46:04.613Z,40.98
2023-04-27T11:48:33.868Z,41.39
2023-04-27T11:51:01.253Z,40.49
2023-04-27T11:53:32.111Z,41.80
2023-04-27T11:56:05.421Z,40.43
2023-04-27T11:58:36.606Z,40.69
2023-04-27T12:01:04.560Z,40.82
2023-04-27T12:03:31.996Z,40.86
2023-04-27T12:06:11.697Z,41.72
2023-04-27T12:08:43.139Z,39.52
2023-04-27T12:11:10.027Z,40.46
2023-04-27T12:13:36.534Z,39.64
2023-04-27T12:16:03.126Z,38.85
2023-04-27T12:18:29.712Z,40.40
2023-04-27T12:20:56.256Z,39.98
2023-04-27T12:23:23.139Z,38.90
2023-04-27T12:25:49.708Z,39.04
2023-04-27T12:28:19.084Z,39.30
2023-04-27T12:30:45.888Z,39.33
2023-04-27T12:33:12.551Z,41.27
2023-04-27T12:35:39.270Z,39.76
2023-04-27T12:38:05.837Z,39.14
2023-04-27T12:40:33.305Z,39.41
2023-04-27T12:43:01.192Z,39.92
2023-04-27T12:45:28.172Z,39.69
2023-04-27T12:48:03.375Z,42.16
2023-04-27T12:50:33.760Z,41.59
2023-04-27T12:53:00.703Z,40.31
2023-04-27T12:55:33.541Z,38.90
2023-04-27T12:58:01.025Z,37.18
2023-04-27T13:00:27.751Z,36.43
2023-04-27T13:02:54.573Z,38.85
2023-04-27T13:05:22.275Z,38.60
2023-04-27T13:07:48.985Z,36.28
2023-04-27T13:10:15.964Z,36.79
2023-04-27T13:12:42.683Z,37.34
2023-04-27T13:15:10.048Z,36.47
2023-04-27T13:17:37.025Z,39.53
2023-04-27T13:20:04.261Z,38.31
2023-04-27T13:22:30.819Z,37.89
2023-04-27T13:24:58.090Z,35.44
2023-04-27T13:27:28.275Z,36.50
2023-04-27T13:29:54.997Z,38.49
2023-04-27T13:32:22.314Z,35.86
2023-04-27T13:34:49.357Z,35.96
2023-04-27T13:37:16.615Z,35.79
2023-04-27T13:39:43.451Z,36.45
2023-04-27T13:42:10.296Z,37.20
2023-04-27T13:44:36.886Z,37.19
2023-04-27T13:47:03.511Z,36.04
2023-04-27T13:49:30.284Z,36.80
2023-04-27T13:51:56.910Z,36.52
2023-04-27T13:54:23.467Z,36.44
2023-04-27T13:56:50.228Z,36.79
2023-04-27T13:59:17.221Z,37.57
2023-04-27T14:01:43.930Z,38.19
2023-04-27T14:04:13.745Z,35.97
2023-04-27T14:06:40.527Z,36.61
2023-04-27T14:09:07.131Z,38.76
2023-04-27T14:11:42.152Z,37.45
2023-04-27T14:14:16.010Z,38.12
2023-04-27T14:16:42.628Z,38.79
2023-04-27T14:19:10.450Z,38.24
2023-04-27T14:21:37.015Z,37.77
2023-04-27T14:24:03.750Z,36.90
2023-04-27T14:26:30.359Z,36.47
2023-04-27T14:29:13.425Z,36.73
2023-04-27T14:31:41.046Z,37.07
2023-04-27T14:34:08.372Z,37.16
2023-04-27T14:36:35.053Z,37.57
2023-04-27T14:39:01.650Z,37.25
2023-04-27T14:41:28.528Z,37.61
2023-04-27T14:43:55.122Z,37.21
2023-04-27T14:46:22.062Z,36.13
2023-04-27T14:48:49.704Z,35.50
2023-04-27T14:51:16.933Z,35.56
2023-04-27T14:53:44.196Z,34.08
2023-04-27T14:56:11.453Z,33.93
2023-04-27T14:58:38.646Z,35.52
2023-04-27T15:01:06.034Z,35.33
2023-04-27T15:03:33.326Z,36.05
2023-04-27T15:06:02.164Z,37.19
2023-04-27T15:08:30.737Z,36.62
2023-04-27T15:11:00.018Z,38.88
2023-04-27T15:13:27.851Z,38.58
2023-04-27T15:15:59.190Z,37.19
2023-04-27T15:18:25.971Z,36.88
2023-04-27T15:20:53.875Z,37.41
2023-04-27T15:23:21.593Z,37.44
2023-04-27T15:25:48.862Z,37.89
2023-04-27T15:28:18.648Z,37.94
2023-04-27T15:30:45.376Z,37.65
2023-04-27T15:33:13.385Z,37.72
2023-04-27T15:35:40.555Z,38.59
2023-04-27T15:38:08.471Z,38.83
2023-04-27T15:40:35.489Z,39.05
2023-04-27T15:43:02.184Z,38.75
2023-04-27T15:45:29.299Z,40.58
2023-04-27T15:47:56.258Z,39.14
2023-04-27T15:50:23.590Z,38.59
2023-04-27T15:52:50.619Z,38.70
2023-04-27T15:55:17.208Z,39.72
2023-04-27T15:57:43.741Z,40.38
2023-04-27T16:00:11.835Z,40.80
2023-04-27T16:02:39.687Z,40.21
2023-04-27T16:05:07.984Z,40.84
2023-04-27T16:07:36.542Z,41.41
2023-04-27T16:10:04.153Z,41.37
2023-04-27T16:12:31.080Z,40.23
2023-04-27T16:14:58.023Z,39.61
2023-04-27T16:17:29.337Z,39.84
2023-04-27T16:19:56.103Z,41.03
2023-04-27T16:22:23.053Z,41.81
2023-04-27T16:24:50.415Z,41.91
2023-04-27T16:27:17.905Z,42.30
2023-04-27T16:29:44.939Z,42.67
2023-04-27T16:32:11.881Z,42.77
2023-04-27T16:34:38.601Z,41.74
2023-04-27T16:37:05.612Z,42.11
2023-04-27T16:39:32.948Z,41.30
2023-04-27T16:41:59.486Z,41.14
2023-04-27T16:44:26.180Z,41.29
2023-04-27T16:46:52.738Z,41.71
2023-04-27T16:49:19.465Z,41.65
2023-04-27T16:51:46.067Z,41.84
2023-04-27T16:54:16.184Z,41.60
2023-04-27T16:56:42.838Z,41.78
2023-04-27T16:59:12.176Z,42.01
2023-04-27T17:01:39.262Z,41.45
2023-04-27T17:04:06.123Z,41.79
2023-04-27T17:06:33.127Z,41.89
2023-04-27T17:08:59.701Z,41.48
2023-04-27T17:11:26.460Z,41.00
2023-04-27T17:13:53.153Z,41.94
2023-04-27T17:16:20.116Z,41.19
2023-04-27T17:18:47.099Z,41.78
2023-04-27T17:21:13.783Z,41.93
2023-04-27T17:23:43.256Z,41.83
2023-04-27T17:26:10.623Z,41.76
2023-04-27T17:28:37.240Z,42.04
2023-04-27T17:31:03.871Z,41.88
2023-04-27T17:33:30.577Z,42.27
2023-04-27T17:35:57.218Z,43.01
2023-04-27T17:38:23.773Z,42.87
2023-04-27T17:40:50.633Z,43.46
2023-04-27T17:43:17.285Z,43.17
2023-04-27T17:45:43.886Z,42.94
2023-04-27T17:48:10.548Z,42.82
2023-04-27T17:50:38.610Z,43.47
2023-04-27T17:53:05.171Z,43.18
2023-04-27T17:55:32.252Z,43.72
2023-04-27T17:57:58.946Z,43.65
2023-04-27T18:00:25.726Z,43.65
2023-04-27T18:02:52.540Z,43.61
2023-04-27T18:05:19.281Z,44.21
2023-04-27T18:07:49.963Z,44.16
2023-04-27T18:10:16.597Z,44.87
2023-04-27T18:12:43.254Z,44.29
2023-04-27T18:15:10.510Z,44.93
2023-04-27T18:17:37.120Z,44.80
2023-04-27T18:20:09.838Z,44.61
2023-04-27T18:22:39.303Z,44.78
2023-04-27T18:25:06.306Z,45.10
2023-04-27T18:27:32.997Z,45.45
2023-04-27T18:29:59.696Z,45.73
2023-04-27T18:32:26.287Z,45.90
2023-04-27T18:34:53.271Z,46.06
2023-04-27T18:37:19.840Z,46.08
2023-04-27T18:39:46.617Z,46.29
2023-04-27T18:42:13.147Z,46.39
2023-04-27T18:44:40.228Z,47.05
2023-04-27T18:47:07.964Z,47.00
2023-04-27T18:49:34.604Z,47.73
2023-04-27T18:52:01.381Z,47.50
2023-04-27T18:54:27.962Z,47.52
2023-04-27T18:56:54.502Z,48.00
2023-04-27T18:59:21.088Z,47.61
2023-04-27T19:01:47.924Z,48.25
2023-04-27T19:04:14.866Z,48.63
2023-04-27T19:06:41.552Z,48.55
2023-04-27T19:09:33.960Z,48.88
2023-04-27T19:12:03.394Z,47.71
2023-04-27T19:14:31.444Z,48.72
2023-04-27T19:16:58.154Z,48.37
2023-04-27T19:19:25.806Z,48.55
2023-04-27T19:21:52.533Z,48.71
2023-04-27T19:24:19.141Z,48.81
2023-04-27T19:26:46.796Z,48.47
2023-04-27T19:29:13.535Z,48.97
2023-04-27T19:31:40.349Z,48.76
2023-04-27T19:34:07.004Z,48.88
2023-04-27T19:36:33.640Z,49.11
2023-04-27T19:39:00.221Z,49.23
2023-04-27T19:41:26.830Z,48.90
2023-04-27T19:43:53.393Z,49.11
2023-04-27T19:46:20.039Z,50.15
2023-04-27T19:48:46.760Z,50.46
2023-04-27T19:51:13.377Z,50.48
2023-04-27T19:53:40.015Z,50.45
2023-04-27T19:56:07.342Z,50.35
2023-04-27T19:58:35.722Z,50.89
2023-04-27T20:01:02.915Z,51.22
2023-04-27T20:03:30.308Z,50.62
2023-04-27T20:05:57.081Z,50.90
2023-04-27T20:08:23.760Z,50.71
2023-04-27T20:10:50.399Z,51.09
2023-04-27T20:13:16.966Z,51.24
2023-04-27T20:15:44.399Z,51.38
2023-04-27T20:18:11.211Z,50.24
2023-04-27T20:20:37.879Z,50.80
2023-04-27T20:23:04.510Z,50.42
2023-04-27T20:25:32.748Z,50.27
2023-04-27T20:27:59.316Z,50.61
2023-04-27T20:30:27.681Z,50.32
2023-04-27T20:32:55.258Z,50.38
2023-04-27T20:35:22.278Z,50.64
2023-04-27T20:37:48.861Z,50.63
2023-04-27T20:40:17.878Z,50.25
2023-04-27T20:42:45.632Z,50.50
2023-04-27T20:45:12.754Z,50.60
2023-04-27T20:47:39.333Z,50.68
2023-04-27T20:50:07.770Z,50.23
2023-04-27T20:52:34.835Z,50.91
2023-04-27T20:55:02.740Z,50.48
2023-04-27T20:57:29.380Z,50.62
2023-04-27T20:59:56.066Z,52.31
2023-04-27T21:02:22.769Z,50.89
2023-04-27T21:04:49.534Z,51.23
2023-04-27T21:07:16.178Z,50.35
2023-04-27T21:09:42.770Z,51.25
2023-04-27T21:12:09.569Z,50.23
2023-04-27T21:14:36.349Z,50.77
2023-04-27T21:17:03.050Z,51.02
2023-04-27T21:19:29.611Z,50.77
2023-04-27T21:21:56.289Z,50.59
2023-04-27T21:24:23.056Z,49.90
2023-04-27T21:26:49.783Z,50.96
2023-04-27T21:29:16.465Z,50.91
2023-04-27T21:31:42.990Z,51.50
2023-04-27T21:34:09.751Z,51.32
2023-04-27T21:36:37.162Z,51.76
2023-04-27T21:39:03.837Z,51.25
2023-04-27T21:41:30.433Z,50.80
2023-04-27T21:43:56.951Z,51.34
2023-04-27T21:46:24.090Z,51.28
2023-04-27T21:48:50.766Z,51.24
2023-04-27T21:51:17.413Z,51.53
2023-04-27T21:53:43.948Z,52.18
2023-04-27T21:56:10.675Z,51.67
2023-04-27T21:58:37.259Z,52.04
2023-04-27T22:01:04.123Z,52.19
2023-04-27T22:03:30.776Z,52.45
2023-04-27T22:05:57.609Z,52.49
2023-04-27T22:08:24.775Z,51.77
2023-04-27T22:10:51.404Z,52.29
2023-04-27T22:13:19.426Z,52.24
2023-04-27T22:15:47.171Z,52.51
2023-04-27T22:18:14.861Z,52.39
2023-04-27T22:20:42.587Z,52.38
2023-04-27T22:23:09.846Z,52.18
2023-04-27T22:25:36.522Z,52.00
2023-04-27T22:28:03.153Z,52.18
2023-04-27T22:30:30.754Z,52.06
2023-04-27T22:32:57.741Z,52.68
2023-04-27T22:35:27.611Z,52.78
2023-04-27T22:38:03.865Z,52.99
2023-04-27T22:40:30.469Z,53.02
2023-04-27T22:42:57.074Z,52.84
2023-04-27T22:45:23.690Z,53.34
2023-04-27T22:47:50.523Z,52.55
2023-04-27T22:50:17.131Z,52.67
2023-04-27T22:52:44.064Z,52.91
2023-04-27T22:55:12.088Z,53.08
2023-04-27T22:57:39.769Z,53.32
2023-04-27T23:00:10.873Z,53.05
2023-04-27T23:02:38.955Z,52.95
2023-04-27T23:05:07.051Z,53.18
2023-04-27T23:07:34.181Z,52.96
2023-04-27T23:10:02.871Z,53.04
2023-04-27T23:12:30.760Z,53.01
2023-04-27T23:14:58.177Z,53.26
2023-04-27T23:17:30.710Z,53.68
2023-04-27T23:19:58.827Z,53.36
2023-04-27T23:22:26.259Z,53.58
2023-04-27T23:24:53.805Z,53.62
2023-04-27T23:27:21.488Z,53.41
2023-04-27T23:29:48.160Z,53.69
2023-04-27T23:32:14.728Z,53.34
2023-04-27T23:34:41.345Z,54.15
2023-04-27T23:37:08.196Z,54.53
2023-04-27T23:39:34.712Z,54.08
2023-04-27T23:42:01.804Z,53.68
2023-04-27T23:44:28.434Z,53.81
2023-04-27T23:46:55.064Z,53.58
2023-04-27T23:49:21.723Z,54.39
2023-04-27T23:51:49.911Z,54.43
2023-04-27T23:54:16.692Z,53.83
2023-04-27T23:56:43.480Z,54.07
2023-04-27T23:59:11.049Z,54.58
